sensor_id;sensor_type;location;lat;lon;timestamp;P1;durP1;ratioP1;P2;durP2;ratioP2
50932;SDS011;36921;49.006;9.292;2023-05-15T00:00:12;9.63;;;5.53;;
50932;SDS011;36921;49.006;9.292;2023-05-15T00:02:38;9.93;;;5.10;;
50932;SDS011;36921;49.006;9.292;2023-05-15T00:05:04;8.07;;;4.95;;
50932;SDS011;36921;49.006;9.292;2023-05-15T00:07:30;12.80;;;4.38;;
50932;SDS011;36921;49.006;9.292;2023-05-15T00:09:56;10.50;;;4.35;;
50932;SDS011;36921;49.006;9.292;2023-05-15T00:12:21;7.78;;;4.50;;
50932;SDS011;36921;49.006;9.292;2023-05-15T00:14:46;13.88;;;5.55;;
50932;SDS011;36921;49.006;9.292;2023-05-15T00:17:12;7.72;;;4.63;;
50932;SDS011;36921;49.006;9.292;2023-05-15T00:19:37;8.10;;;4.72;;
50932;SDS011;36921;49.006;9.292;2023-05-15T00:22:02;7.93;;;4.85;;
50932;SDS011;36921;49.006;9.292;2023-05-15T00:24:28;10.23;;;5.47;;
50932;SDS011;36921;49.006;9.292;2023-05-15T00:26:53;8.48;;;4.63;;
50932;SDS011;36921;49.006;9.292;2023-05-15T00:29:19;9.63;;;5.32;;
50932;SDS011;36921;49.006;9.292;2023-05-15T00:31:44;7.88;;;4.40;;
50932;SDS011;36921;49.006;9.292;2023-05-15T00:34:09;8.55;;;4.60;;
50932;SDS011;36921;49.006;9.292;2023-05-15T00:36:34;12.75;;;4.78;;
50932;SDS011;36921;49.006;9.292;2023-05-15T00:39:00;10.27;;;5.00;;
50932;SDS011;36921;49.006;9.292;2023-05-15T00:41:25;10.23;;;5.68;;
50932;SDS011;36921;49.006;9.292;2023-05-15T00:43:52;10.48;;;5.53;;
50932;SDS011;36921;49.006;9.292;2023-05-15T00:46:19;7.85;;;4.78;;
50932;SDS011;36921;49.006;9.292;2023-05-15T00:48:47;8.25;;;5.25;;
50932;SDS011;36921;49.006;9.292;2023-05-15T00:51:14;9.65;;;5.78;;
50932;SDS011;36921;49.006;9.292;2023-05-15T00:53:41;9.45;;;4.78;;
50932;SDS011;36921;49.006;9.292;2023-05-15T00:56:07;8.70;;;5.35;;
50932;SDS011;36921;49.006;9.292;2023-05-15T00:58:33;9.05;;;4.75;;
50932;SDS011;36921;49.006;9.292;2023-05-15T01:01:00;8.32;;;5.50;;
50932;SDS011;36921;49.006;9.292;2023-05-15T01:03:27;9.18;;;5.22;;
50932;SDS011;36921;49.006;9.292;2023-05-15T01:05:52;13.45;;;5.30;;
50932;SDS011;36921;49.006;9.292;2023-05-15T01:08:19;10.35;;;5.32;;
50932;SDS011;36921;49.006;9.292;2023-05-15T01:10:50;8.85;;;5.32;;
50932;SDS011;36921;49.006;9.292;2023-05-15T01:13:16;8.85;;;5.40;;
50932;SDS011;36921;49.006;9.292;2023-05-15T01:15:44;11.43;;;5.53;;
50932;SDS011;36921;49.006;9.292;2023-05-15T01:18:10;8.98;;;5.28;;
50932;SDS011;36921;49.006;9.292;2023-05-15T01:20:43;9.90;;;5.47;;
50932;SDS011;36921;49.006;9.292;2023-05-15T01:26:08;10.45;;;4.90;;
50932;SDS011;36921;49.006;9.292;2023-05-15T01:31:21;8.18;;;5.07;;
50932;SDS011;36921;49.006;9.292;2023-05-15T01:38:55;11.13;;;4.65;;
50932;SDS011;36921;49.006;9.292;2023-05-15T01:44:38;10.30;;;5.00;;
50932;SDS011;36921;49.006;9.292;2023-05-15T01:46:49;7.38;;;4.70;;
50932;SDS011;36921;49.006;9.292;2023-05-15T01:49:16;10.65;;;5.43;;
50932;SDS011;36921;49.006;9.292;2023-05-15T01:51:43;11.52;;;5.53;;
50932;SDS011;36921;49.006;9.292;2023-05-15T01:54:11;13.38;;;6.03;;
50932;SDS011;36921;49.006;9.292;2023-05-15T01:56:39;10.35;;;5.55;;
50932;SDS011;36921;49.006;9.292;2023-05-15T01:59:06;11.20;;;5.90;;
50932;SDS011;36921;49.006;9.292;2023-05-15T02:01:33;9.95;;;5.45;;
50932;SDS011;36921;49.006;9.292;2023-05-15T02:04:00;13.50;;;6.10;;
50932;SDS011;36921;49.006;9.292;2023-05-15T02:06:27;10.38;;;6.00;;
50932;SDS011;36921;49.006;9.292;2023-05-15T02:08:55;13.55;;;6.20;;
50932;SDS011;36921;49.006;9.292;2023-05-15T02:11:21;10.85;;;5.95;;
50932;SDS011;36921;49.006;9.292;2023-05-15T02:13:47;10.10;;;5.75;;
50932;SDS011;36921;49.006;9.292;2023-05-15T02:16:13;9.85;;;5.75;;
50932;SDS011;36921;49.006;9.292;2023-05-15T02:18:38;10.95;;;5.53;;
50932;SDS011;36921;49.006;9.292;2023-05-15T02:21:03;10.52;;;6.10;;
50932;SDS011;36921;49.006;9.292;2023-05-15T02:23:29;10.35;;;5.43;;
50932;SDS011;36921;49.006;9.292;2023-05-15T02:31:44;9.93;;;5.43;;
50932;SDS011;36921;49.006;9.292;2023-05-15T02:34:25;10.07;;;5.25;;
50932;SDS011;36921;49.006;9.292;2023-05-15T02:36:59;7.38;;;4.72;;
50932;SDS011;36921;49.006;9.292;2023-05-15T02:39:27;8.85;;;5.25;;
50932;SDS011;36921;49.006;9.292;2023-05-15T02:41:53;9.75;;;5.40;;
50932;SDS011;36921;49.006;9.292;2023-05-15T02:44:19;8.30;;;5.13;;
50932;SDS011;36921;49.006;9.292;2023-05-15T02:46:46;9.45;;;5.50;;
50932;SDS011;36921;49.006;9.292;2023-05-15T02:49:13;8.80;;;5.50;;
50932;SDS011;36921;49.006;9.292;2023-05-15T02:51:39;11.95;;;6.22;;
50932;SDS011;36921;49.006;9.292;2023-05-15T02:54:04;8.38;;;5.55;;
50932;SDS011;36921;49.006;9.292;2023-05-15T02:56:30;9.00;;;5.40;;
50932;SDS011;36921;49.006;9.292;2023-05-15T02:58:55;13.43;;;6.53;;
50932;SDS011;36921;49.006;9.292;2023-05-15T03:01:21;11.25;;;6.22;;
50932;SDS011;36921;49.006;9.292;2023-05-15T03:03:46;8.32;;;5.43;;
50932;SDS011;36921;49.006;9.292;2023-05-15T03:06:11;7.78;;;4.90;;
50932;SDS011;36921;49.006;9.292;2023-05-15T03:08:37;8.77;;;5.63;;
50932;SDS011;36921;49.006;9.292;2023-05-15T03:11:02;11.68;;;5.38;;
50932;SDS011;36921;49.006;9.292;2023-05-15T03:13:27;9.77;;;5.80;;
50932;SDS011;36921;49.006;9.292;2023-05-15T03:15:53;33.28;;;6.38;;
50932;SDS011;36921;49.006;9.292;2023-05-15T03:18:18;11.25;;;6.45;;
50932;SDS011;36921;49.006;9.292;2023-05-15T03:20:43;13.65;;;7.20;;
50932;SDS011;36921;49.006;9.292;2023-05-15T03:23:09;9.60;;;5.95;;
50932;SDS011;36921;49.006;9.292;2023-05-15T03:25:34;12.27;;;6.97;;
50932;SDS011;36921;49.006;9.292;2023-05-15T03:28:00;12.85;;;7.43;;
50932;SDS011;36921;49.006;9.292;2023-05-15T03:30:25;9.30;;;5.95;;
50932;SDS011;36921;49.006;9.292;2023-05-15T03:32:50;14.90;;;5.13;;
50932;SDS011;36921;49.006;9.292;2023-05-15T03:35:16;10.35;;;5.75;;
50932;SDS011;36921;49.006;9.292;2023-05-15T03:37:41;8.68;;;5.20;;
50932;SDS011;36921;49.006;9.292;2023-05-15T03:40:07;8.48;;;5.15;;
50932;SDS011;36921;49.006;9.292;2023-05-15T03:42:33;8.57;;;5.03;;
50932;SDS011;36921;49.006;9.292;2023-05-15T03:44:58;11.18;;;5.28;;
50932;SDS011;36921;49.006;9.292;2023-05-15T03:47:23;7.63;;;4.20;;
50932;SDS011;36921;49.006;9.292;2023-05-15T03:49:49;11.73;;;6.22;;
50932;SDS011;36921;49.006;9.292;2023-05-15T03:52:14;10.63;;;5.68;;
50932;SDS011;36921;49.006;9.292;2023-05-15T03:54:40;9.15;;;5.63;;
50932;SDS011;36921;49.006;9.292;2023-05-15T03:57:06;9.20;;;5.82;;
50932;SDS011;36921;49.006;9.292;2023-05-15T03:59:31;9.38;;;5.10;;
50932;SDS011;36921;49.006;9.292;2023-05-15T04:01:57;9.63;;;6.18;;
50932;SDS011;36921;49.006;9.292;2023-05-15T04:04:22;12.27;;;5.50;;
50932;SDS011;36921;49.006;9.292;2023-05-15T04:06:48;13.20;;;6.15;;
50932;SDS011;36921;49.006;9.292;2023-05-15T04:09:14;14.30;;;6.90;;
50932;SDS011;36921;49.006;9.292;2023-05-15T04:11:39;11.57;;;6.68;;
50932;SDS011;36921;49.006;9.292;2023-05-15T04:14:05;10.32;;;6.03;;
50932;SDS011;36921;49.006;9.292;2023-05-15T04:16:30;10.18;;;5.28;;
50932;SDS011;36921;49.006;9.292;2023-05-15T04:18:55;9.48;;;5.82;;
50932;SDS011;36921;49.006;9.292;2023-05-15T04:21:21;9.52;;;5.93;;
50932;SDS011;36921;49.006;9.292;2023-05-15T04:23:46;9.23;;;5.75;;
50932;SDS011;36921;49.006;9.292;2023-05-15T04:26:11;13.25;;;5.90;;
50932;SDS011;36921;49.006;9.292;2023-05-15T04:28:36;12.27;;;6.25;;
50932;SDS011;36921;49.006;9.292;2023-05-15T04:31:02;11.07;;;6.03;;
50932;SDS011;36921;49.006;9.292;2023-05-15T04:33:27;10.05;;;6.18;;
50932;SDS011;36921;49.006;9.292;2023-05-15T04:35:52;13.63;;;6.20;;
50932;SDS011;36921;49.006;9.292;2023-05-15T04:38:18;9.18;;;5.93;;
50932;SDS011;36921;49.006;9.292;2023-05-15T04:40:44;13.27;;;6.47;;
50932;SDS011;36921;49.006;9.292;2023-05-15T04:43:09;10.35;;;6.45;;
50932;SDS011;36921;49.006;9.292;2023-05-15T04:45:35;10.20;;;5.72;;
50932;SDS011;36921;49.006;9.292;2023-05-15T04:48:00;12.85;;;5.95;;
50932;SDS011;36921;49.006;9.292;2023-05-15T04:50:25;8.68;;;5.80;;
50932;SDS011;36921;49.006;9.292;2023-05-15T04:52:51;9.52;;;6.18;;
50932;SDS011;36921;49.006;9.292;2023-05-15T04:55:16;10.57;;;5.97;;
50932;SDS011;36921;49.006;9.292;2023-05-15T04:57:41;8.13;;;5.70;;
50932;SDS011;36921;49.006;9.292;2023-05-15T05:00:07;8.43;;;5.32;;
50932;SDS011;36921;49.006;9.292;2023-05-15T05:02:36;8.30;;;5.10;;
50932;SDS011;36921;49.006;9.292;2023-05-15T05:05:03;8.25;;;5.57;;
50932;SDS011;36921;49.006;9.292;2023-05-15T05:07:29;16.02;;;5.75;;
50932;SDS011;36921;49.006;9.292;2023-05-15T05:09:54;12.77;;;6.93;;
50932;SDS011;36921;49.006;9.292;2023-05-15T05:12:19;15.18;;;7.18;;
50932;SDS011;36921;49.006;9.292;2023-05-15T05:14:45;16.23;;;6.90;;
50932;SDS011;36921;49.006;9.292;2023-05-15T05:17:10;12.93;;;6.72;;
50932;SDS011;36921;49.006;9.292;2023-05-15T05:19:36;9.85;;;5.95;;
50932;SDS011;36921;49.006;9.292;2023-05-15T05:22:02;8.95;;;5.88;;
50932;SDS011;36921;49.006;9.292;2023-05-15T05:24:29;9.85;;;5.72;;
50932;SDS011;36921;49.006;9.292;2023-05-15T05:26:59;9.50;;;5.18;;
50932;SDS011;36921;49.006;9.292;2023-05-15T05:29:25;19.77;;;5.47;;
50932;SDS011;36921;49.006;9.292;2023-05-15T05:31:50;11.00;;;5.78;;
50932;SDS011;36921;49.006;9.292;2023-05-15T05:34:15;10.93;;;5.70;;
50932;SDS011;36921;49.006;9.292;2023-05-15T05:36:41;9.43;;;5.43;;
50932;SDS011;36921;49.006;9.292;2023-05-15T05:39:06;8.73;;;5.32;;
50932;SDS011;36921;49.006;9.292;2023-05-15T05:41:31;7.97;;;5.38;;
50932;SDS011;36921;49.006;9.292;2023-05-15T05:43:57;8.80;;;5.50;;
50932;SDS011;36921;49.006;9.292;2023-05-15T05:46:22;7.65;;;5.00;;
50932;SDS011;36921;49.006;9.292;2023-05-15T05:48:47;11.95;;;5.25;;
50932;SDS011;36921;49.006;9.292;2023-05-15T05:51:13;7.05;;;4.75;;
50932;SDS011;36921;49.006;9.292;2023-05-15T05:53:39;10.10;;;5.22;;
50932;SDS011;36921;49.006;9.292;2023-05-15T05:56:04;6.90;;;4.82;;
50932;SDS011;36921;49.006;9.292;2023-05-15T05:58:30;9.13;;;5.10;;
50932;SDS011;36921;49.006;9.292;2023-05-15T06:00:55;8.77;;;5.03;;
50932;SDS011;36921;49.006;9.292;2023-05-15T06:03:20;8.43;;;5.22;;
50932;SDS011;36921;49.006;9.292;2023-05-15T06:05:46;12.40;;;5.47;;
50932;SDS011;36921;49.006;9.292;2023-05-15T06:08:12;7.82;;;5.35;;
50932;SDS011;36921;49.006;9.292;2023-05-15T06:10:37;7.90;;;5.32;;
50932;SDS011;36921;49.006;9.292;2023-05-15T06:13:03;8.10;;;4.72;;
50932;SDS011;36921;49.006;9.292;2023-05-15T06:15:29;10.05;;;5.60;;
50932;SDS011;36921;49.006;9.292;2023-05-15T06:17:54;7.85;;;5.50;;
50932;SDS011;36921;49.006;9.292;2023-05-15T06:20:20;6.80;;;4.97;;
50932;SDS011;36921;49.006;9.292;2023-05-15T06:22:46;8.00;;;5.03;;
50932;SDS011;36921;49.006;9.292;2023-05-15T06:25:11;7.32;;;5.13;;
50932;SDS011;36921;49.006;9.292;2023-05-15T06:27:38;7.47;;;4.97;;
50932;SDS011;36921;49.006;9.292;2023-05-15T06:30:07;7.72;;;4.63;;
50932;SDS011;36921;49.006;9.292;2023-05-15T06:32:33;6.28;;;4.47;;
50932;SDS011;36921;49.006;9.292;2023-05-15T06:34:59;5.85;;;4.28;;
50932;SDS011;36921;49.006;9.292;2023-05-15T06:37:24;7.57;;;4.20;;
50932;SDS011;36921;49.006;9.292;2023-05-15T06:39:49;6.03;;;4.13;;
50932;SDS011;36921;49.006;9.292;2023-05-15T06:42:22;5.35;;;4.18;;
50932;SDS011;36921;49.006;9.292;2023-05-15T06:44:47;8.18;;;4.28;;
50932;SDS011;36921;49.006;9.292;2023-05-15T06:47:13;4.10;;;3.17;;
50932;SDS011;36921;49.006;9.292;2023-05-15T06:49:39;5.50;;;4.10;;
50932;SDS011;36921;49.006;9.292;2023-05-15T06:52:04;6.05;;;3.50;;
50932;SDS011;36921;49.006;9.292;2023-05-15T06:54:30;3.95;;;2.90;;
50932;SDS011;36921;49.006;9.292;2023-05-15T06:56:55;4.82;;;3.10;;
50932;SDS011;36921;49.006;9.292;2023-05-15T06:59:21;3.17;;;2.50;;
50932;SDS011;36921;49.006;9.292;2023-05-15T07:01:46;4.03;;;2.75;;
50932;SDS011;36921;49.006;9.292;2023-05-15T07:04:11;4.55;;;2.80;;
50932;SDS011;36921;49.006;9.292;2023-05-15T07:06:37;6.30;;;2.30;;
50932;SDS011;36921;49.006;9.292;2023-05-15T07:09:03;3.00;;;2.60;;
50932;SDS011;36921;49.006;9.292;2023-05-15T07:11:32;3.78;;;2.95;;
50932;SDS011;36921;49.006;9.292;2023-05-15T07:14:03;2.97;;;2.08;;
50932;SDS011;36921;49.006;9.292;2023-05-15T07:16:29;2.75;;;2.50;;
50932;SDS011;36921;49.006;9.292;2023-05-15T07:18:55;3.25;;;2.35;;
50932;SDS011;36921;49.006;9.292;2023-05-15T07:21:20;3.13;;;2.72;;
50932;SDS011;36921;49.006;9.292;2023-05-15T07:23:47;3.20;;;2.17;;
50932;SDS011;36921;49.006;9.292;2023-05-15T07:26:12;5.65;;;2.97;;
50932;SDS011;36921;49.006;9.292;2023-05-15T07:28:39;3.00;;;2.47;;
50932;SDS011;36921;49.006;9.292;2023-05-15T07:31:11;3.67;;;2.70;;
50932;SDS011;36921;49.006;9.292;2023-05-15T07:33:37;4.35;;;2.72;;
50932;SDS011;36921;49.006;9.292;2023-05-15T07:36:02;8.35;;;2.25;;
50932;SDS011;36921;49.006;9.292;2023-05-15T07:38:28;3.50;;;2.40;;
50932;SDS011;36921;49.006;9.292;2023-05-15T07:40:55;2.65;;;2.20;;
50932;SDS011;36921;49.006;9.292;2023-05-15T07:43:20;2.63;;;2.03;;
50932;SDS011;36921;49.006;9.292;2023-05-15T07:45:46;2.60;;;2.10;;
50932;SDS011;36921;49.006;9.292;2023-05-15T07:48:18;2.20;;;1.85;;
50932;SDS011;36921;49.006;9.292;2023-05-15T07:50:44;2.85;;;1.90;;
50932;SDS011;36921;49.006;9.292;2023-05-15T07:53:11;2.60;;;1.88;;
50932;SDS011;36921;49.006;9.292;2023-05-15T07:55:37;3.45;;;1.73;;
50932;SDS011;36921;49.006;9.292;2023-05-15T07:58:02;3.08;;;1.70;;
50932;SDS011;36921;49.006;9.292;2023-05-15T08:00:28;2.35;;;1.73;;
50932;SDS011;36921;49.006;9.292;2023-05-15T08:02:53;2.55;;;2.00;;
50932;SDS011;36921;49.006;9.292;2023-05-15T08:05:20;2.97;;;1.77;;
50932;SDS011;36921;49.006;9.292;2023-05-15T08:07:45;2.20;;;1.88;;
50932;SDS011;36921;49.006;9.292;2023-05-15T08:10:10;3.00;;;1.63;;
50932;SDS011;36921;49.006;9.292;2023-05-15T08:12:36;2.00;;;1.65;;
50932;SDS011;36921;49.006;9.292;2023-05-15T08:15:02;13.77;;;4.32;;
50932;SDS011;36921;49.006;9.292;2023-05-15T08:17:27;20.02;;;7.35;;
50932;SDS011;36921;49.006;9.292;2023-05-15T08:19:54;12.07;;;3.53;;
50932;SDS011;36921;49.006;9.292;2023-05-15T08:22:20;3.92;;;2.33;;
50932;SDS011;36921;49.006;9.292;2023-05-15T08:24:45;8.38;;;3.00;;
50932;SDS011;36921;49.006;9.292;2023-05-15T08:27:11;2.60;;;1.90;;
50932;SDS011;36921;49.006;9.292;2023-05-15T08:29:36;4.05;;;2.00;;
50932;SDS011;36921;49.006;9.292;2023-05-15T08:32:02;2.45;;;1.85;;
50932;SDS011;36921;49.006;9.292;2023-05-15T08:34:29;3.28;;;2.20;;
50932;SDS011;36921;49.006;9.292;2023-05-15T08:36:54;2.13;;;1.45;;
50932;SDS011;36921;49.006;9.292;2023-05-15T08:39:20;3.45;;;2.00;;
50932;SDS011;36921;49.006;9.292;2023-05-15T08:41:47;2.50;;;2.00;;
50932;SDS011;36921;49.006;9.292;2023-05-15T08:44:17;6.65;;;2.22;;
50932;SDS011;36921;49.006;9.292;2023-05-15T08:46:43;4.22;;;2.20;;
50932;SDS011;36921;49.006;9.292;2023-05-15T08:49:32;2.20;;;1.50;;
50932;SDS011;36921;49.006;9.292;2023-05-15T08:52:01;1.85;;;1.55;;
50932;SDS011;36921;49.006;9.292;2023-05-15T08:54:28;1.98;;;1.77;;
50932;SDS011;36921;49.006;9.292;2023-05-15T08:56:54;3.25;;;1.48;;
50932;SDS011;36921;49.006;9.292;2023-05-15T08:59:19;2.75;;;1.58;;
50932;SDS011;36921;49.006;9.292;2023-05-15T09:01:45;2.20;;;1.70;;
50932;SDS011;36921;49.006;9.292;2023-05-15T09:04:10;4.05;;;1.98;;
50932;SDS011;36921;49.006;9.292;2023-05-15T09:06:35;2.90;;;1.50;;
50932;SDS011;36921;49.006;9.292;2023-05-15T09:09:02;2.30;;;1.58;;
50932;SDS011;36921;49.006;9.292;2023-05-15T09:11:29;2.55;;;1.80;;
50932;SDS011;36921;49.006;9.292;2023-05-15T09:13:59;3.03;;;1.60;;
50932;SDS011;36921;49.006;9.292;2023-05-15T09:16:25;2.10;;;1.65;;
50932;SDS011;36921;49.006;9.292;2023-05-15T09:18:53;1.98;;;1.30;;
50932;SDS011;36921;49.006;9.292;2023-05-15T09:21:22;2.03;;;1.67;;
50932;SDS011;36921;49.006;9.292;2023-05-15T09:23:49;2.90;;;1.80;;
50932;SDS011;36921;49.006;9.292;2023-05-15T09:26:15;1.77;;;1.55;;
50932;SDS011;36921;49.006;9.292;2023-05-15T09:28:40;2.63;;;1.88;;
50932;SDS011;36921;49.006;9.292;2023-05-15T09:31:06;2.88;;;1.90;;
50932;SDS011;36921;49.006;9.292;2023-05-15T09:33:35;3.55;;;1.83;;
50932;SDS011;36921;49.006;9.292;2023-05-15T09:36:06;3.17;;;1.73;;
50932;SDS011;36921;49.006;9.292;2023-05-15T09:38:51;3.90;;;2.03;;
50932;SDS011;36921;49.006;9.292;2023-05-15T09:41:25;3.30;;;1.92;;
50932;SDS011;36921;49.006;9.292;2023-05-15T09:46:22;3.75;;;2.13;;
50932;SDS011;36921;49.006;9.292;2023-05-15T09:48:48;2.67;;;2.03;;
50932;SDS011;36921;49.006;9.292;2023-05-15T09:51:18;2.85;;;2.20;;
50932;SDS011;36921;49.006;9.292;2023-05-15T09:53:50;3.05;;;1.92;;
50932;SDS011;36921;49.006;9.292;2023-05-15T09:56:16;4.35;;;1.80;;
50932;SDS011;36921;49.006;9.292;2023-05-15T09:58:55;2.13;;;1.77;;
50932;SDS011;36921;49.006;9.292;2023-05-15T10:01:21;3.25;;;1.90;;
50932;SDS011;36921;49.006;9.292;2023-05-15T10:04:00;3.15;;;2.08;;
50932;SDS011;36921;49.006;9.292;2023-05-15T10:06:33;2.20;;;1.33;;
50932;SDS011;36921;49.006;9.292;2023-05-15T10:09:00;2.63;;;2.00;;
50932;SDS011;36921;49.006;9.292;2023-05-15T10:11:26;1.88;;;1.50;;
50932;SDS011;36921;49.006;9.292;2023-05-15T10:13:54;4.45;;;1.65;;
50932;SDS011;36921;49.006;9.292;2023-05-15T10:16:19;3.15;;;1.63;;
50932;SDS011;36921;49.006;9.292;2023-05-15T10:18:49;2.00;;;1.80;;
50932;SDS011;36921;49.006;9.292;2023-05-15T10:21:16;7.20;;;1.90;;
50932;SDS011;36921;49.006;9.292;2023-05-15T10:23:44;1.73;;;1.45;;
50932;SDS011;36921;49.006;9.292;2023-05-15T10:26:13;2.83;;;1.70;;
50932;SDS011;36921;49.006;9.292;2023-05-15T10:28:45;2.85;;;1.50;;
50932;SDS011;36921;49.006;9.292;2023-05-15T10:31:12;2.67;;;1.77;;
50932;SDS011;36921;49.006;9.292;2023-05-15T10:33:38;4.28;;;1.88;;
50932;SDS011;36921;49.006;9.292;2023-05-15T10:36:04;1.55;;;1.40;;
50932;SDS011;36921;49.006;9.292;2023-05-15T10:38:31;4.20;;;1.40;;
50932;SDS011;36921;49.006;9.292;2023-05-15T10:40:58;2.70;;;1.20;;
50932;SDS011;36921;49.006;9.292;2023-05-15T10:43:24;1.75;;;1.40;;
50932;SDS011;36921;49.006;9.292;2023-05-15T10:45:50;1.63;;;1.30;;
50932;SDS011;36921;49.006;9.292;2023-05-15T10:48:16;1.30;;;1.20;;
50932;SDS011;36921;49.006;9.292;2023-05-15T10:50:43;2.78;;;1.42;;
50932;SDS011;36921;49.006;9.292;2023-05-15T10:53:09;3.25;;;1.45;;
50932;SDS011;36921;49.006;9.292;2023-05-15T10:55:35;1.90;;;1.20;;
50932;SDS011;36921;49.006;9.292;2023-05-15T10:58:00;1.73;;;1.20;;
50932;SDS011;36921;49.006;9.292;2023-05-15T11:00:29;1.60;;;1.50;;
50932;SDS011;36921;49.006;9.292;2023-05-15T11:02:57;3.45;;;1.30;;
50932;SDS011;36921;49.006;9.292;2023-05-15T11:05:23;1.92;;;1.40;;
50932;SDS011;36921;49.006;9.292;2023-05-15T11:10:39;1.50;;;1.30;;
50932;SDS011;36921;49.006;9.292;2023-05-15T11:13:05;3.83;;;1.35;;
50932;SDS011;36921;49.006;9.292;2023-05-15T11:15:43;4.88;;;1.58;;
50932;SDS011;36921;49.006;9.292;2023-05-15T11:18:10;5.00;;;1.60;;
50932;SDS011;36921;49.006;9.292;2023-05-15T11:23:19;2.42;;;1.30;;
50932;SDS011;36921;49.006;9.292;2023-05-15T11:25:46;2.30;;;1.33;;
50932;SDS011;36921;49.006;9.292;2023-05-15T11:28:20;3.22;;;1.20;;
50932;SDS011;36921;49.006;9.292;2023-05-15T11:30:49;2.65;;;1.40;;
50932;SDS011;36921;49.006;9.292;2023-05-15T11:33:15;4.88;;;1.40;;
50932;SDS011;36921;49.006;9.292;2023-05-15T11:35:42;6.45;;;1.30;;
50932;SDS011;36921;49.006;9.292;2023-05-15T11:38:17;6.53;;;1.52;;
50932;SDS011;36921;49.006;9.292;2023-05-15T11:43:19;12.75;;;2.00;;
50932;SDS011;36921;49.006;9.292;2023-05-15T11:45:52;6.65;;;1.63;;
50932;SDS011;36921;49.006;9.292;2023-05-15T11:48:20;3.17;;;1.70;;
50932;SDS011;36921;49.006;9.292;2023-05-15T11:50:46;4.63;;;1.75;;
50932;SDS011;36921;49.006;9.292;2023-05-15T11:53:11;1.73;;;1.42;;
50932;SDS011;36921;49.006;9.292;2023-05-15T11:55:38;7.95;;;1.70;;
50932;SDS011;36921;49.006;9.292;2023-05-15T11:58:09;2.63;;;1.60;;
50932;SDS011;36921;49.006;9.292;2023-05-15T12:00:36;5.20;;;1.80;;
50932;SDS011;36921;49.006;9.292;2023-05-15T12:03:01;3.22;;;1.70;;
50932;SDS011;36921;49.006;9.292;2023-05-15T12:05:30;3.83;;;1.60;;
50932;SDS011;36921;49.006;9.292;2023-05-15T12:07:55;2.95;;;1.50;;
50932;SDS011;36921;49.006;9.292;2023-05-15T12:10:22;4.63;;;1.45;;
50932;SDS011;36921;49.006;9.292;2023-05-15T12:12:47;3.17;;;1.65;;
50932;SDS011;36921;49.006;9.292;2023-05-15T12:15:14;19.35;;;2.47;;
50932;SDS011;36921;49.006;9.292;2023-05-15T12:17:44;2.80;;;1.88;;
50932;SDS011;36921;49.006;9.292;2023-05-15T12:20:10;4.40;;;1.65;;
50932;SDS011;36921;49.006;9.292;2023-05-15T12:22:40;2.58;;;1.90;;
50932;SDS011;36921;49.006;9.292;2023-05-15T12:25:09;6.03;;;2.00;;
50932;SDS011;36921;49.006;9.292;2023-05-15T12:27:36;4.32;;;1.70;;
50932;SDS011;36921;49.006;9.292;2023-05-15T12:30:03;2.50;;;1.50;;
50932;SDS011;36921;49.006;9.292;2023-05-15T12:32:31;3.42;;;1.80;;
50932;SDS011;36921;49.006;9.292;2023-05-15T12:34:58;4.10;;;1.90;;
50932;SDS011;36921;49.006;9.292;2023-05-15T12:37:23;3.50;;;1.90;;
50932;SDS011;36921;49.006;9.292;2023-05-15T12:39:59;1.60;;;1.40;;
50932;SDS011;36921;49.006;9.292;2023-05-15T12:42:26;2.88;;;1.52;;
50932;SDS011;36921;49.006;9.292;2023-05-15T12:44:51;3.40;;;1.50;;
50932;SDS011;36921;49.006;9.292;2023-05-15T12:47:22;5.75;;;1.80;;
50932;SDS011;36921;49.006;9.292;2023-05-15T12:49:48;7.07;;;1.88;;
50932;SDS011;36921;49.006;9.292;2023-05-15T12:52:14;3.45;;;1.67;;
50932;SDS011;36921;49.006;9.292;2023-05-15T12:54:41;5.32;;;1.60;;
50932;SDS011;36921;49.006;9.292;2023-05-15T12:57:07;18.83;;;2.13;;
50932;SDS011;36921;49.006;9.292;2023-05-15T12:59:33;2.13;;;1.52;;
50932;SDS011;36921;49.006;9.292;2023-05-15T13:01:59;18.92;;;1.77;;
50932;SDS011;36921;49.006;9.292;2023-05-15T13:04:25;4.57;;;1.30;;
50932;SDS011;36921;49.006;9.292;2023-05-15T13:06:50;7.28;;;2.10;;
50932;SDS011;36921;49.006;9.292;2023-05-15T13:09:22;4.88;;;1.25;;
50932;SDS011;36921;49.006;9.292;2023-05-15T13:11:47;3.78;;;1.70;;
50932;SDS011;36921;49.006;9.292;2023-05-15T13:14:15;3.95;;;1.40;;
50932;SDS011;36921;49.006;9.292;2023-05-15T13:16:42;1.88;;;1.25;;
50932;SDS011;36921;49.006;9.292;2023-05-15T13:19:08;2.85;;;1.50;;
50932;SDS011;36921;49.006;9.292;2023-05-15T13:21:34;3.00;;;1.90;;
50932;SDS011;36921;49.006;9.292;2023-05-15T13:24:00;2.88;;;1.40;;
50932;SDS011;36921;49.006;9.292;2023-05-15T13:26:25;2.30;;;1.67;;
50932;SDS011;36921;49.006;9.292;2023-05-15T13:28:50;3.50;;;1.40;;
50932;SDS011;36921;49.006;9.292;2023-05-15T13:31:16;2.05;;;1.45;;
50932;SDS011;36921;49.006;9.292;2023-05-15T13:33:41;6.97;;;1.80;;
50932;SDS011;36921;49.006;9.292;2023-05-15T13:36:07;2.28;;;1.10;;
50932;SDS011;36921;49.006;9.292;2023-05-15T13:38:32;1.40;;;1.10;;
50932;SDS011;36921;49.006;9.292;2023-05-15T13:40:58;2.83;;;1.02;;
50932;SDS011;36921;49.006;9.292;2023-05-15T13:43:23;0.82;;;0.82;;
50932;SDS011;36921;49.006;9.292;2023-05-15T13:45:48;1.88;;;1.13;;
50932;SDS011;36921;49.006;9.292;2023-05-15T13:48:13;1.35;;;1.10;;
50932;SDS011;36921;49.006;9.292;2023-05-15T13:50:39;1.88;;;1.10;;
50932;SDS011;36921;49.006;9.292;2023-05-15T13:53:04;1.17;;;0.90;;
50932;SDS011;36921;49.006;9.292;2023-05-15T13:55:30;2.70;;;1.45;;
50932;SDS011;36921;49.006;9.292;2023-05-15T13:57:56;11.05;;;1.83;;
50932;SDS011;36921;49.006;9.292;2023-05-15T14:00:21;3.33;;;1.40;;
50932;SDS011;36921;49.006;9.292;2023-05-15T14:02:46;1.60;;;1.25;;
50932;SDS011;36921;49.006;9.292;2023-05-15T14:05:12;1.92;;;1.15;;
50932;SDS011;36921;49.006;9.292;2023-05-15T14:07:39;2.92;;;1.20;;
50932;SDS011;36921;49.006;9.292;2023-05-15T14:10:05;1.83;;;1.20;;
50932;SDS011;36921;49.006;9.292;2023-05-15T14:12:31;3.17;;;1.40;;
50932;SDS011;36921;49.006;9.292;2023-05-15T14:14:57;4.25;;;1.25;;
50932;SDS011;36921;49.006;9.292;2023-05-15T14:17:22;2.20;;;1.20;;
50932;SDS011;36921;49.006;9.292;2023-05-15T14:19:48;2.70;;;1.27;;
50932;SDS011;36921;49.006;9.292;2023-05-15T14:22:13;3.70;;;1.30;;
50932;SDS011;36921;49.006;9.292;2023-05-15T14:24:39;3.35;;;1.50;;
50932;SDS011;36921;49.006;9.292;2023-05-15T14:27:04;2.00;;;1.20;;
50932;SDS011;36921;49.006;9.292;2023-05-15T14:29:30;3.83;;;1.70;;
50932;SDS011;36921;49.006;9.292;2023-05-15T14:31:55;3.30;;;1.42;;
50932;SDS011;36921;49.006;9.292;2023-05-15T14:34:21;2.47;;;1.58;;
50932;SDS011;36921;49.006;9.292;2023-05-15T14:36:47;2.50;;;1.50;;
50932;SDS011;36921;49.006;9.292;2023-05-15T14:39:14;2.15;;;1.50;;
50932;SDS011;36921;49.006;9.292;2023-05-15T14:41:40;3.60;;;1.80;;
50932;SDS011;36921;49.006;9.292;2023-05-15T14:44:05;6.78;;;1.77;;
50932;SDS011;36921;49.006;9.292;2023-05-15T14:46:31;3.47;;;1.90;;
50932;SDS011;36921;49.006;9.292;2023-05-15T14:48:56;3.03;;;1.85;;
50932;SDS011;36921;49.006;9.292;2023-05-15T14:51:21;3.15;;;2.10;;
50932;SDS011;36921;49.006;9.292;2023-05-15T14:53:46;3.53;;;2.00;;
50932;SDS011;36921;49.006;9.292;2023-05-15T14:56:12;4.40;;;1.98;;
50932;SDS011;36921;49.006;9.292;2023-05-15T14:58:37;3.15;;;1.90;;
50932;SDS011;36921;49.006;9.292;2023-05-15T15:01:03;2.53;;;2.20;;
50932;SDS011;36921;49.006;9.292;2023-05-15T15:03:29;4.03;;;2.28;;
50932;SDS011;36921;49.006;9.292;2023-05-15T15:05:54;3.95;;;2.10;;
50932;SDS011;36921;49.006;9.292;2023-05-15T15:08:19;3.30;;;1.83;;
50932;SDS011;36921;49.006;9.292;2023-05-15T15:10:45;3.85;;;2.08;;